createdAt,value
2023-01-09T00:01:43.161Z,94138.47
2023-01-09T00:04:30.086Z,94138.56
2023-01-09T00:07:10.122Z,94147.91
2023-01-09T00:10:04.071Z,94148.78
2023-01-09T00:12:51.079Z,94145.41
2023-01-09T00:15:24.217Z,94136.16
2023-01-09T00:18:11.104Z,94131.94
2023-01-09T00:20:51.153Z,94130.31
2023-01-09T00:23:45.105Z,94133.69
2023-01-09T00:26:32.083Z,94126.09
2023-01-09T00:29:06.239Z,94126.94
2023-01-09T00:31:53.081Z,94131.97
2023-01-09T00:34:33.100Z,94128.59
2023-01-09T00:37:27.153Z,94126.06
2023-01-09T00:40:21.087Z,94131.94
2023-01-09T00:43:15.147Z,94128.53
2023-01-09T00:46:02.134Z,94129.34
2023-01-09T00:48:42.091Z,94131.03
2023-01-09T00:51:31.087Z,94125.94
2023-01-09T00:54:11.124Z,94135.25
2023-01-09T00:57:05.154Z,94138.66
2023-01-09T00:59:52.125Z,94139.50
2023-01-09T01:02:32.236Z,94130.19
2023-01-09T01:05:44.155Z,94129.38
2023-01-09T01:08:31.214Z,94127.69
2023-01-09T01:11:11.205Z,94128.53
2023-01-09T01:13:58.086Z,94114.91
2023-01-09T01:16:39.143Z,94117.47
2023-01-09T01:19:26.123Z,94116.66
2023-01-09T01:22:06.145Z,94131.91
2023-01-09T01:25:00.097Z,94127.75
2023-01-09T01:27:47.196Z,94118.44
2023-01-09T01:30:29.163Z,94115.09
2023-01-09T01:33:17.116Z,94114.31
2023-01-09T01:35:50.239Z,94110.13
2023-01-09T01:38:38.126Z,94110.16
2023-01-09T01:41:12.397Z,94105.06
2023-01-09T01:44:12.150Z,94093.25
2023-01-09T01:47:08.139Z,94090.75
2023-01-09T01:50:02.143Z,94098.34
2023-01-09T01:52:54.098Z,94094.97
2023-01-09T01:55:27.233Z,94090.75
2023-01-09T01:58:18.271Z,94092.41
2023-01-09T02:00:54.459Z,94100.06
2023-01-09T02:03:43.110Z,94097.53
2023-01-09T02:06:17.281Z,94098.41
2023-01-09T02:09:04.116Z,94093.34
2023-01-09T02:11:45.216Z,94095.00
2023-01-09T02:14:44.128Z,94101.78
2023-01-09T02:17:49.142Z,94089.91
2023-01-09T02:20:37.361Z,94078.06
2023-01-09T02:23:58.121Z,94083.94
2023-01-09T02:26:59.296Z,94088.19
2023-01-09T02:30:06.168Z,94072.13
2023-01-09T02:32:55.173Z,94073.84
2023-01-09T02:36:24.177Z,94069.59
2023-01-09T02:39:20.166Z,94071.31
2023-01-09T02:42:04.168Z,94073.84
2023-01-09T02:44:51.206Z,94076.38
2023-01-09T02:47:24.323Z,94070.44
2023-01-09T02:50:16.218Z,94078.91
2023-01-09T02:53:11.333Z,94071.25
2023-01-09T02:56:11.197Z,94073.75
2023-01-09T02:58:56.620Z,94073.72
2023-01-09T03:02:02.276Z,94056.75
2023-01-09T03:05:24.246Z,94056.66
2023-01-09T03:08:15.177Z,94063.41
2023-01-09T03:11:28.173Z,94057.41
2023-01-09T03:14:21.277Z,94060.78
2023-01-09T03:16:59.248Z,94055.69
2023-01-09T03:19:48.233Z,94053.97
2023-01-09T03:22:21.241Z,94059.06
2023-01-09T03:25:08.216Z,94051.38
2023-01-09T03:27:41.259Z,94047.06
2023-01-09T03:30:28.159Z,94050.38
2023-01-09T03:33:02.361Z,94044.38
2023-01-09T03:35:49.208Z,94041.78
2023-01-09T03:38:29.212Z,94049.38
2023-01-09T03:41:16.166Z,94044.22
2023-01-09T03:43:49.330Z,94039.91
2023-01-09T03:46:36.182Z,94044.06
2023-01-09T03:49:09.413Z,94046.56
2023-01-09T03:51:56.185Z,94038.88
2023-01-09T03:54:36.207Z,94049.81
2023-01-09T03:57:31.178Z,94045.56
2023-01-09T04:00:19.249Z,94046.31
2023-01-09T04:02:59.212Z,94058.16
2023-01-09T04:05:53.246Z,94045.41
2023-01-09T04:08:40.217Z,94041.97
2023-01-09T04:11:20.233Z,94039.41
2023-01-09T04:14:07.267Z,94033.47
2023-01-09T04:16:40.359Z,94034.22
2023-01-09T04:19:27.193Z,94034.19
2023-01-09T04:22:07.177Z,94038.41
2023-01-09T04:25:01.186Z,94041.75
2023-01-09T04:27:55.195Z,94032.41
2023-01-09T04:30:42.195Z,94038.34
2023-01-09T04:33:15.336Z,94040.91
2023-01-09T04:36:02.222Z,94036.66
2023-01-09T04:38:35.318Z,94039.19
2023-01-09T04:41:42.181Z,94040.00
2023-01-09T04:44:15.330Z,94041.66
2023-01-09T04:47:05.184Z,94040.84
2023-01-09T04:49:45.199Z,94039.94
2023-01-09T04:52:33.251Z,94027.22
2023-01-09T04:55:07.615Z,94034.00
2023-01-09T04:57:54.217Z,94029.75
2023-01-09T05:00:34.176Z,94030.56
2023-01-09T05:03:21.196Z,94028.84
2023-01-09T05:06:01.198Z,94024.56
2023-01-09T05:08:48.213Z,94034.75
2023-01-09T05:11:28.297Z,94025.41
2023-01-09T05:14:22.182Z,94026.22
2023-01-09T05:17:09.281Z,94013.47
2023-01-09T05:19:42.637Z,94015.13
2023-01-09T05:22:29.207Z,94007.50
2023-01-09T05:25:09.271Z,94004.94
2023-01-09T05:28:03.209Z,93999.06
2023-01-09T05:30:57.232Z,94003.28
2023-01-09T05:33:51.209Z,94006.66
2023-01-09T05:36:45.240Z,94007.50
2023-01-09T05:39:32.221Z,94014.28
2023-01-09T05:42:05.401Z,94008.34
2023-01-09T05:44:52.248Z,94002.38
2023-01-09T05:47:25.305Z,94003.19
2023-01-09T05:50:12.213Z,94000.56
2023-01-09T05:52:52.213Z,94002.31
2023-01-09T05:55:47.254Z,93986.19
2023-01-09T05:58:34.279Z,93987.00
2023-01-09T06:01:07.381Z,93982.75
2023-01-09T06:03:54.232Z,93981.09
2023-01-09T06:06:27.426Z,93977.66
2023-01-09T06:09:14.235Z,93975.94
2023-01-09T06:11:47.310Z,93980.13
2023-01-09T06:14:34.222Z,93970.81
2023-01-09T06:17:07.484Z,93976.72
2023-01-09T06:19:54.203Z,93967.44
2023-01-09T06:22:34.235Z,93971.63
2023-01-09T06:25:21.419Z,93968.19
2023-01-09T06:27:55.336Z,93978.34
2023-01-09T06:30:42.231Z,93977.53
2023-01-09T06:33:22.268Z,93977.53
2023-01-09T06:36:16.223Z,93975.84
2023-01-09T06:39:03.209Z,93975.00
2023-01-09T06:41:37.227Z,93979.22
2023-01-09T06:44:31.280Z,93978.34
2023-01-09T06:47:25.250Z,93967.28
2023-01-09T06:50:13.226Z,93966.47
2023-01-09T06:52:53.252Z,93975.72
2023-01-09T06:55:47.240Z,93974.03
2023-01-09T06:58:34.219Z,93974.81
2023-01-09T07:01:07.514Z,93971.44
2023-01-09T07:03:55.252Z,93971.47
2023-01-09T07:06:28.349Z,93974.81
2023-01-09T07:09:15.225Z,93962.03
2023-01-09T07:11:51.399Z,93962.88
2023-01-09T07:14:38.265Z,93969.69
2023-01-09T07:17:11.377Z,93967.13
2023-01-09T07:19:58.264Z,93958.69
2023-01-09T07:22:31.495Z,93968.84
2023-01-09T07:25:18.289Z,93958.69
2023-01-09T07:27:51.378Z,93953.59
2023-01-09T07:30:40.255Z,93959.44
2023-01-09T07:33:20.245Z,93948.53
2023-01-09T07:36:07.234Z,93956.16
2023-01-09T07:38:50.302Z,93957.06
2023-01-09T07:41:44.259Z,93957.16
2023-01-09T07:44:38.270Z,93957.91
2023-01-09T07:47:32.270Z,93947.81
2023-01-09T07:50:26.265Z,93950.41
2023-01-09T07:53:13.268Z,93942.75
2023-01-09T07:55:56.266Z,93941.97
2023-01-09T07:58:50.269Z,93928.41
2023-01-09T08:01:37.346Z,93933.47
2023-01-09T08:04:10.387Z,93939.38
2023-01-09T08:06:57.276Z,93938.56
2023-01-09T08:09:30.497Z,93947.91
2023-01-09T08:12:17.276Z,93947.84
2023-01-09T08:14:51.395Z,93946.09
2023-01-09T08:17:38.364Z,93954.47
2023-01-09T08:20:19.382Z,93949.28
2023-01-09T08:23:13.291Z,93961.06
2023-01-09T08:26:07.272Z,93956.66
2023-01-09T08:28:55.287Z,93957.94
2023-01-09T08:31:28.438Z,93962.81
2023-01-09T08:34:16.292Z,93961.94
2023-01-09T08:36:49.412Z,93968.59
2023-01-09T08:39:36.276Z,93971.25
2023-01-09T08:42:34.266Z,93967.44
2023-01-09T08:45:47.291Z,93958.13
2023-01-09T08:48:41.296Z,93954.78
2023-01-09T08:51:28.324Z,93952.34
2023-01-09T08:54:08.285Z,93954.94
2023-01-09T08:57:02.321Z,93949.94
2023-01-09T08:59:56.392Z,93960.16
2023-01-09T09:02:50.373Z,93962.69
2023-01-09T09:05:46.791Z,93961.06
2023-01-09T09:08:33.298Z,93951.88
2023-01-09T09:11:13.306Z,93951.81
2023-01-09T09:14:00.296Z,93950.06
2023-01-09T09:16:34.420Z,93943.34
2023-01-09T09:19:21.304Z,93947.59
2023-01-09T09:21:54.564Z,93944.97
2023-01-09T09:24:41.294Z,93934.66
2023-01-09T09:27:14.400Z,93933.75
2023-01-09T09:30:01.351Z,93932.00
2023-01-09T09:32:45.307Z,93931.16
2023-01-09T09:35:40.338Z,93918.31
2023-01-09T09:38:27.333Z,93919.94
2023-01-09T09:41:53.326Z,93918.34
2023-01-09T09:45:16.322Z,93902.22
2023-01-09T09:48:26.317Z,93903.81
2023-01-09T09:51:49.343Z,93896.94
2023-01-09T09:54:45.322Z,93898.72
2023-01-09T09:57:24.407Z,93887.88
2023-01-09T10:00:13.301Z,93876.06
2023-01-09T10:03:06.200Z,93866.69
2023-01-09T10:05:57.321Z,93858.13
2023-01-09T10:09:05.335Z,93866.56
2023-01-09T10:12:33.329Z,93877.34
2023-01-09T10:15:51.375Z,93878.69
2023-01-09T10:18:56.316Z,93888.75
2023-01-09T10:21:41.474Z,93900.66
2023-01-09T10:24:45.334Z,93903.19
2023-01-09T10:27:47.334Z,93905.78
2023-01-09T10:30:46.352Z,93913.44
2023-01-09T10:34:03.363Z,93920.28
2023-01-09T10:37:08.388Z,93926.44
2023-01-09T10:40:13.334Z,93924.00
2023-01-09T10:43:01.353Z,93921.59
2023-01-09T10:46:01.325Z,93929.41
2023-01-09T10:48:52.351Z,93923.66
2023-01-09T10:51:35.430Z,93916.97
2023-01-09T10:54:30.340Z,93917.88
2023-01-09T10:57:07.474Z,93912.81
2023-01-09T10:59:54.337Z,93923.91
2023-01-09T11:02:40.580Z,93913.75
2023-01-09T11:05:36.337Z,93910.25
2023-01-09T11:08:15.457Z,93913.88
2023-01-09T11:11:05.350Z,93903.72
2023-01-09T11:13:53.356Z,93902.03
2023-01-09T11:16:47.344Z,93895.44
2023-01-09T11:19:41.354Z,93893.97
2023-01-09T11:22:28.352Z,93893.97
2023-01-09T11:25:10.432Z,93899.13
2023-01-09T11:28:09.358Z,93895.75
2023-01-09T11:31:01.626Z,93895.75
2023-01-09T11:33:55.359Z,93889.84
2023-01-09T11:36:31.551Z,93882.25
2023-01-09T11:39:34.364Z,93886.50
2023-01-09T11:42:17.393Z,93884.00
2023-01-09T11:45:12.343Z,93876.38
2023-01-09T11:48:06.346Z,93876.38
2023-01-09T11:51:10.363Z,93865.38
2023-01-09T11:54:08.365Z,93864.53
2023-01-09T11:56:49.417Z,93864.66
2023-01-09T11:59:33.407Z,93862.13
2023-01-09T12:02:38.373Z,93869.88
2023-01-09T12:05:24.390Z,93867.41
2023-01-09T12:08:30.379Z,93864.88
2023-01-09T12:11:06.491Z,93865.75
2023-01-09T12:14:30.404Z,93876.00
2023-01-09T12:17:23.350Z,93870.97
2023-01-09T12:20:45.405Z,93864.22
2023-01-09T12:23:46.417Z,93855.78
2023-01-09T12:26:39.371Z,93858.41
2023-01-09T12:29:21.521Z,93854.22
2023-01-09T12:32:23.427Z,93853.50
2023-01-09T12:35:03.506Z,93852.66
2023-01-09T12:38:23.426Z,93847.53
2023-01-09T12:41:09.412Z,93850.94
2023-01-09T12:44:27.388Z,93847.56
2023-01-09T12:47:40.385Z,93855.19
2023-01-09T12:50:46.547Z,93839.91
2023-01-09T12:53:45.395Z,93841.63
2023-01-09T12:56:39.395Z,93840.81
2023-01-09T12:59:47.479Z,93834.84
2023-01-09T13:03:07.191Z,93840.81
2023-01-09T13:05:53.669Z,93834.03
2023-01-09T13:08:52.402Z,93828.16
2023-01-09T13:11:45.409Z,93820.63
2023-01-09T13:14:50.394Z,93816.38
2023-01-09T13:17:47.426Z,93827.53
2023-01-09T13:20:46.544Z,93815.69
2023-01-09T13:23:54.431Z,93819.97
2023-01-09T13:26:32.663Z,93816.69
2023-01-09T13:29:30.417Z,93825.97
2023-01-09T13:32:14.422Z,93823.41
2023-01-09T13:35:09.390Z,93817.59
2023-01-09T13:37:59.431Z,93815.09
2023-01-09T13:40:35.539Z,93813.50
2023-01-09T13:43:24.427Z,93815.16
2023-01-09T13:46:06.499Z,93810.06
2023-01-09T13:49:00.395Z,93811.72
2023-01-09T13:51:57.443Z,93810.97
2023-01-09T13:55:09.393Z,93817.72
2023-01-09T13:58:12.422Z,93807.53
2023-01-09T14:00:45.536Z,93806.66
2023-01-09T14:03:40.425Z,93812.53
2023-01-09T14:06:29.415Z,93813.38
2023-01-09T14:09:34.427Z,93810.06
2023-01-09T14:12:13.522Z,93813.34
2023-01-09T14:15:04.411Z,93811.69
2023-01-09T14:17:40.516Z,93816.69
2023-01-09T14:20:34.415Z,93827.72
2023-01-09T14:23:42.328Z,93822.69
2023-01-09T14:26:24.464Z,93823.56
2023-01-09T14:29:05.434Z,93833.72
2023-01-09T14:31:52.464Z,93832.06
2023-01-09T14:34:42.541Z,93833.72
2023-01-09T14:37:30.470Z,93840.50
2023-01-09T14:40:11.437Z,93833.72
2023-01-09T14:43:04.442Z,93831.19
2023-01-09T14:45:49.181Z,93831.19
2023-01-09T14:48:45.467Z,93832.06
2023-01-09T14:51:34.442Z,93837.16
2023-01-09T14:54:19.538Z,93843.97
2023-01-09T14:57:07.432Z,93844.88
2023-01-09T14:59:40.533Z,93844.91
2023-01-09T15:02:28.508Z,93831.41
2023-01-09T15:05:15.451Z,93839.16
2023-01-09T15:08:14.451Z,93825.63
2023-01-09T15:11:03.432Z,93837.69
2023-01-09T15:13:43.446Z,93845.38
2023-01-09T15:16:39.514Z,93841.09
2023-01-09T15:19:26.429Z,93843.63
2023-01-09T15:22:33.516Z,93838.53
2023-01-09T15:25:40.607Z,93834.38
2023-01-09T15:28:32.619Z,93826.97
2023-01-09T15:31:23.588Z,93836.41
2023-01-09T15:34:04.478Z,93841.53
2023-01-09T15:36:52.557Z,93858.50
2023-01-09T15:39:40.442Z,93866.13
2023-01-09T15:42:59.506Z,93872.03
2023-01-09T15:45:55.494Z,93870.28
2023-01-09T15:48:52.454Z,93866.00
2023-01-09T15:51:47.468Z,93865.19
2023-01-09T15:54:37.462Z,93872.78
2023-01-09T15:57:34.166Z,93866.00
2023-01-09T16:00:40.467Z,93872.78
2023-01-09T16:03:32.676Z,93870.19
2023-01-09T16:06:35.481Z,93875.34
2023-01-09T16:09:15.498Z,93878.72
2023-01-09T16:12:17.450Z,93877.09
2023-01-09T16:15:06.538Z,93875.47
2023-01-09T16:17:46.491Z,93875.50
2023-01-09T16:20:40.520Z,93883.13
2023-01-09T16:23:30.477Z,93882.28
2023-01-09T16:26:18.617Z,93891.63
2023-01-09T16:29:44.460Z,93887.34
2023-01-09T16:32:39.507Z,93878.94
2023-01-09T16:35:35.512Z,93886.53
2023-01-09T16:38:18.469Z,93878.94
2023-01-09T16:41:34.489Z,93865.41
2023-01-09T16:44:21.466Z,93862.94
2023-01-09T16:46:56.889Z,93875.66
2023-01-09T16:49:43.549Z,93875.75
2023-01-09T16:52:32.513Z,93880.00
2023-01-09T16:55:19.506Z,93886.88
2023-01-09T16:57:52.617Z,93886.88
2023-01-09T17:00:39.504Z,93894.53
2023-01-09T17:03:12.612Z,93897.94
2023-01-09T17:06:01.480Z,93908.06
2023-01-09T17:08:48.502Z,93908.06
2023-01-09T17:11:37.530Z,93908.06
2023-01-09T17:14:17.501Z,93908.97
2023-01-09T17:17:04.535Z,93921.69
2023-01-09T17:19:44.521Z,93920.81
2023-01-09T17:22:38.488Z,93930.13
2023-01-09T17:25:43.459Z,93934.34
2023-01-09T17:28:34.001Z,93941.13
2023-01-09T17:31:20.559Z,93932.69
2023-01-09T17:34:00.495Z,93943.75
2023-01-09T17:36:54.492Z,93942.91
2023-01-09T17:39:41.516Z,93941.28
2023-01-09T17:42:21.497Z,93937.03
2023-01-09T17:45:15.538Z,93946.31
2023-01-09T17:48:02.502Z,93943.00
2023-01-09T17:50:42.524Z,93942.94
2023-01-09T17:53:36.540Z,93934.50
2023-01-09T17:56:33.538Z,93939.59
2023-01-09T17:59:16.529Z,93941.34
2023-01-09T18:02:10.542Z,93937.09
2023-01-09T18:04:57.547Z,93944.75
2023-01-09T18:07:38.513Z,93943.91
2023-01-09T18:10:31.538Z,93939.66
2023-01-09T18:13:04.705Z,93942.19
2023-01-09T18:15:52.503Z,93939.72
2023-01-09T18:18:25.705Z,93938.91
2023-01-09T18:21:13.535Z,93944.81
2023-01-09T18:23:47.611Z,93943.97
2023-01-09T18:26:34.520Z,93949.06
2023-01-09T18:29:07.711Z,93945.72
2023-01-09T18:31:54.602Z,93943.19
2023-01-09T18:34:27.677Z,93937.28
2023-01-09T18:37:14.634Z,93939.84
2023-01-09T18:39:47.647Z,93940.66
2023-01-09T18:42:34.538Z,93937.44
2023-01-09T18:45:07.816Z,93934.13
2023-01-09T18:47:54.517Z,93935.00
2023-01-09T18:50:27.730Z,93940.09
2023-01-09T18:53:14.558Z,93940.09
2023-01-09T18:55:47.646Z,93932.47
2023-01-09T18:58:34.538Z,93941.00
2023-01-09T19:01:08.800Z,93949.44
2023-01-09T19:03:55.601Z,93953.72
2023-01-09T19:06:36.551Z,93958.78
2023-01-09T19:09:30.570Z,93958.78
2023-01-09T19:12:24.556Z,93957.97
2023-01-09T19:15:20.572Z,93952.06
2023-01-09T19:18:07.542Z,93952.06
2023-01-09T19:20:40.705Z,93948.69
2023-01-09T19:23:31.561Z,93952.97
2023-01-09T19:26:11.647Z,93950.41
2023-01-09T19:29:01.558Z,93952.97
2023-01-09T19:31:42.600Z,93957.22
2023-01-09T19:34:30.578Z,93950.50
2023-01-09T19:37:03.843Z,93945.38
2023-01-09T19:39:50.583Z,93953.88
2023-01-09T19:42:23.719Z,93951.31
2023-01-09T19:45:10.550Z,93945.41
2023-01-09T19:48:04.571Z,93945.41
2023-01-09T19:50:51.565Z,93950.50
2023-01-09T19:53:32.547Z,93950.50
2023-01-09T19:56:31.574Z,93960.66
2023-01-09T19:59:25.565Z,93959.00
2023-01-09T20:05:08.558Z,93957.38
2023-01-09T20:07:46.589Z,93959.03
2023-01-09T20:10:33.564Z,93954.84
2023-01-09T20:13:06.690Z,93954.00
2023-01-09T20:15:53.581Z,93954.88
2023-01-09T20:18:26.698Z,93951.50
2023-01-09T20:21:13.586Z,93952.34
2023-01-09T20:23:46.686Z,93948.06
2023-01-09T20:26:34.613Z,93940.44
2023-01-09T20:29:11.230Z,93949.75
2023-01-09T20:31:57.653Z,93943.84
2023-01-09T20:34:37.594Z,93943.84
2023-01-09T20:37:24.559Z,93944.69
2023-01-09T20:40:07.584Z,93939.59
2023-01-09T20:43:09.587Z,93944.69
2023-01-09T20:46:03.643Z,93947.22
2023-01-09T20:48:50.591Z,93939.59
2023-01-09T20:51:31.573Z,93938.78
2023-01-09T20:54:28.575Z,93946.34
2023-01-09T20:57:15.616Z,93940.44
2023-01-09T20:59:48.690Z,93942.16
2023-01-09T21:02:35.582Z,93938.72
2023-01-09T21:05:09.790Z,93934.47
2023-01-09T21:07:56.582Z,93944.69
2023-01-09T21:10:29.763Z,93945.50
2023-01-09T21:13:16.608Z,93943.84
2023-01-09T21:15:49.716Z,93949.78
2023-01-09T21:18:36.562Z,93958.28
2023-01-09T21:21:15.771Z,93958.28
2023-01-09T21:24:04.605Z,93961.72
2023-01-09T21:26:37.721Z,93960.00
2023-01-09T21:29:24.591Z,93962.56
2023-01-09T21:31:57.992Z,93962.56
2023-01-09T21:34:44.600Z,93968.53
2023-01-09T21:37:24.626Z,93969.34
2023-01-09T21:40:27.622Z,93971.13
2023-01-09T21:43:46.594Z,93972.13
2023-01-09T21:46:58.604Z,93973.06
2023-01-09T21:49:50.598Z,93968.03
2023-01-09T21:52:32.617Z,93963.84
2023-01-09T21:55:26.595Z,93959.72
2023-01-09T21:58:13.610Z,93958.88
2023-01-09T22:00:53.611Z,93957.19
2023-01-09T22:03:47.688Z,93955.50
2023-01-09T22:06:41.608Z,93958.03
2023-01-09T22:09:28.631Z,93958.09
2023-01-09T22:12:01.784Z,93956.31
2023-01-09T22:14:48.637Z,93956.31
2023-01-09T22:17:21.767Z,93946.19
2023-01-09T22:20:08.615Z,93950.41
2023-01-09T22:22:48.605Z,93954.66
2023-01-09T22:25:35.623Z,93952.13
2023-01-09T22:28:11.588Z,93948.75
2023-01-09T22:30:58.665Z,93945.44
2023-01-09T22:33:38.692Z,93947.13
2023-01-09T22:36:32.684Z,93946.31
2023-01-09T22:39:21.637Z,93948.03
2023-01-09T22:41:59.199Z,93939.59
2023-01-09T22:44:45.635Z,93948.91
2023-01-09T22:47:25.701Z,93952.28
2023-01-09T22:50:19.691Z,93949.72
2023-01-09T22:53:06.619Z,93953.94
2023-01-09T22:55:46.630Z,93951.31
2023-01-09T22:58:42.619Z,93953.84
2023-01-09T23:01:29.641Z,93962.28
2023-01-09T23:04:04.720Z,93961.41
2023-01-09T23:06:51.628Z,93965.66
2023-01-09T23:09:24.878Z,93963.16
2023-01-09T23:12:12.701Z,93968.25
2023-01-09T23:15:11.630Z,93971.66
2023-01-09T23:18:16.695Z,93966.59
2023-01-09T23:21:17.622Z,93964.06
2023-01-09T23:24:23.659Z,93963.19
2023-01-09T23:27:15.761Z,93969.97
2023-01-09T23:30:20.700Z,93969.13
2023-01-09T23:33:19.650Z,93966.59
2023-01-09T23:36:24.698Z,93963.25
2023-01-09T23:39:16.842Z,93962.41
2023-01-09T23:42:40.732Z,93961.59
2023-01-09T23:45:40.102Z,93959.88
2023-01-09T23:48:51.675Z,93958.19
2023-01-09T23:51:56.704Z,93961.53
2023-01-09T23:54:48.966Z,93963.25
2023-01-09T23:57:53.664Z,93955.66
